createdAt,value
2022-12-18T00:05:01.243Z,43.22
2022-12-18T00:10:06.466Z,43.46
2022-12-18T00:15:09.710Z,43.37
2022-12-18T00:20:12.721Z,43.23
2022-12-18T00:25:17.053Z,43.43
2022-12-18T00:30:20.014Z,43.53
2022-12-18T00:35:22.763Z,43.52
2022-12-18T00:40:26.878Z,43.44
2022-12-18T00:45:32.442Z,43.51
2022-12-18T00:50:35.323Z,43.59
2022-12-18T00:55:41.006Z,43.54
2022-12-18T01:00:45.264Z,43.64
2022-12-18T01:05:48.057Z,43.42
2022-12-18T01:10:52.661Z,43.51
2022-12-18T01:15:55.423Z,43.42
2022-12-18T01:20:58.403Z,43.58
2022-12-18T01:26:07.765Z,43.94
2022-12-18T01:31:16.955Z,43.89
2022-12-18T01:36:20.687Z,44.14
2022-12-18T01:41:27.319Z,44.31
2022-12-18T01:46:30.130Z,44.32
2022-12-18T01:51:33.593Z,44.57
2022-12-18T01:56:37.730Z,44.70
2022-12-18T02:01:40.702Z,44.83
2022-12-18T02:06:43.900Z,44.87
2022-12-18T02:11:51.230Z,45.14
2022-12-18T02:16:55.371Z,44.81
2022-12-18T02:22:02.272Z,45.14
2022-12-18T02:27:07.720Z,45.04
2022-12-18T02:32:13.652Z,45.03
2022-12-18T02:37:17.927Z,45.11
2022-12-18T02:42:22.410Z,45.34
2022-12-18T02:47:26.980Z,45.50
2022-12-18T02:52:33.681Z,45.53
2022-12-18T02:57:42.943Z,45.57
2022-12-18T03:02:48.272Z,45.83
2022-12-18T03:07:53.919Z,45.79
2022-12-18T03:13:01.960Z,45.67
2022-12-18T03:18:06.351Z,45.68
2022-12-18T03:23:10.769Z,45.82
2022-12-18T03:28:16.811Z,45.69
2022-12-18T03:33:21.493Z,45.90
2022-12-18T03:38:26.908Z,45.66
2022-12-18T03:43:38.687Z,46.05
2022-12-18T03:48:44.891Z,45.84
2022-12-18T03:53:54.089Z,45.85
2022-12-18T03:59:02.121Z,45.92
2022-12-18T04:04:06.133Z,46.07
2022-12-18T04:09:12.207Z,46.18
2022-12-18T04:14:20.620Z,46.26
2022-12-18T04:19:27.865Z,46.08
2022-12-18T04:24:31.192Z,46.15
2022-12-18T04:29:44.406Z,46.07
2022-12-18T04:34:47.305Z,46.01
2022-12-18T04:39:50.308Z,46.26
2022-12-18T04:45:01.943Z,46.08
2022-12-18T04:50:05.338Z,46.06
2022-12-18T04:55:08.716Z,46.28
2022-12-18T05:00:14.245Z,46.38
2022-12-18T05:05:17.082Z,46.28
2022-12-18T05:10:19.836Z,46.19
2022-12-18T05:15:23.959Z,46.04
2022-12-18T05:20:26.751Z,46.32
2022-12-18T05:25:30.435Z,46.22
2022-12-18T05:30:35.055Z,46.38
2022-12-18T05:35:37.866Z,46.21
2022-12-18T05:40:43.705Z,46.22
2022-12-18T05:45:47.858Z,46.44
2022-12-18T05:50:51.112Z,46.42
2022-12-18T05:55:53.912Z,46.39
2022-12-18T06:00:58.094Z,46.43
2022-12-18T06:06:00.868Z,46.37
2022-12-18T06:11:03.627Z,46.51
2022-12-18T06:16:09.015Z,46.78
2022-12-18T06:21:12.086Z,46.72
2022-12-18T06:26:14.905Z,46.65
2022-12-18T06:31:19.082Z,46.81
2022-12-18T06:36:22.276Z,46.44
2022-12-18T06:41:25.086Z,46.58
2022-12-18T06:46:29.421Z,46.69
2022-12-18T06:51:32.223Z,46.72
2022-12-18T06:56:35.007Z,46.48
2022-12-18T07:01:39.312Z,46.48
2022-12-18T07:06:42.167Z,46.66
2022-12-18T07:11:44.950Z,46.67
2022-12-18T07:16:49.250Z,46.68
2022-12-18T07:21:52.045Z,46.50
2022-12-18T07:26:54.812Z,46.54
2022-12-18T07:31:59.047Z,46.66
2022-12-18T07:37:01.880Z,46.84
2022-12-18T07:42:22.466Z,46.62
2022-12-18T07:47:27.360Z,46.77
2022-12-18T07:52:30.900Z,46.58
2022-12-18T07:57:49.908Z,46.68
2022-12-18T08:02:55.653Z,46.65
2022-12-18T08:07:58.452Z,46.80
2022-12-18T08:13:04.800Z,46.18
2022-12-18T08:18:14.200Z,45.59
2022-12-18T08:23:17.379Z,45.41
2022-12-18T08:28:20.110Z,45.26
2022-12-18T08:33:24.455Z,44.85
2022-12-18T08:38:27.436Z,44.87
2022-12-18T08:43:47.839Z,44.66
2022-12-18T08:48:52.365Z,44.36
2022-12-18T08:53:55.267Z,44.22
2022-12-18T08:58:58.056Z,43.84
2022-12-18T09:04:02.276Z,43.54
2022-12-18T09:09:05.343Z,43.79
2022-12-18T09:14:08.211Z,43.76
2022-12-18T09:19:12.375Z,43.50
2022-12-18T09:24:15.590Z,43.12
2022-12-18T09:29:18.942Z,42.95
2022-12-18T09:34:23.994Z,42.94
2022-12-18T09:39:26.775Z,42.83
2022-12-18T09:44:31.228Z,42.62
2022-12-18T09:49:36.778Z,42.58
2022-12-18T09:54:41.072Z,42.57
2022-12-18T09:59:43.966Z,42.48
2022-12-18T10:04:50.374Z,42.29
2022-12-18T10:09:55.842Z,42.23
2022-12-18T10:15:00.794Z,42.48
2022-12-18T10:20:07.398Z,42.41
2022-12-18T10:25:18.129Z,42.16
2022-12-18T10:30:21.938Z,42.11
2022-12-18T10:35:27.725Z,42.18
2022-12-18T10:40:30.509Z,42.02
2022-12-18T10:45:33.362Z,42.04
2022-12-18T10:51:09.651Z,41.98
2022-12-18T10:56:01.674Z,41.80
2022-12-18T11:01:10.409Z,41.74
2022-12-18T11:06:15.530Z,41.28
2022-12-18T11:11:21.754Z,41.29
2022-12-18T11:16:24.786Z,41.19
2022-12-18T11:21:29.273Z,41.24
2022-12-18T11:26:35.771Z,41.33
2022-12-18T11:31:38.637Z,41.44
2022-12-18T11:36:44.327Z,41.52
2022-12-18T11:42:08.269Z,41.31
2022-12-18T11:47:14.207Z,41.03
2022-12-18T11:52:20.406Z,41.26
2022-12-18T11:57:30.465Z,39.65
2022-12-18T12:02:43.638Z,40.04
2022-12-18T12:07:50.072Z,22.48
2022-12-18T12:12:59.655Z,21.44
2022-12-18T12:18:10.936Z,24.81
2022-12-18T12:23:22.407Z,29.10
2022-12-18T12:28:36.385Z,29.35
2022-12-18T12:33:42.500Z,31.13
2022-12-18T12:38:52.378Z,31.95
2022-12-18T12:43:55.848Z,32.10
2022-12-18T12:49:00.318Z,32.50
2022-12-18T12:54:05.862Z,32.90
2022-12-18T12:59:14.721Z,33.51
2022-12-18T13:04:22.829Z,33.85
2022-12-18T13:09:27.114Z,34.02
2022-12-18T13:14:31.628Z,33.92
2022-12-18T13:19:35.633Z,34.40
2022-12-18T13:24:40.000Z,34.81
2022-12-18T13:29:43.943Z,35.18
2022-12-18T13:34:46.775Z,35.78
2022-12-18T13:39:50.906Z,36.17
2022-12-18T13:44:53.794Z,36.59
2022-12-18T13:49:56.670Z,36.78
2022-12-18T13:55:01.462Z,37.04
2022-12-18T14:00:25.735Z,37.34
2022-12-18T14:05:30.697Z,37.50
2022-12-18T14:10:48.547Z,37.33
2022-12-18T14:15:52.587Z,37.41
2022-12-18T14:20:57.370Z,37.88
2022-12-18T14:26:05.712Z,38.27
2022-12-18T14:31:21.603Z,38.33
2022-12-18T14:36:25.398Z,38.56
2022-12-18T14:41:29.897Z,38.80
2022-12-18T14:46:36.070Z,38.72
2022-12-18T14:51:39.032Z,38.90
2022-12-18T14:56:46.415Z,39.06
2022-12-18T15:01:51.100Z,39.15
2022-12-18T15:07:06.095Z,39.24
2022-12-18T15:12:22.361Z,39.39
2022-12-18T15:17:26.678Z,39.62
2022-12-18T15:22:30.486Z,39.75
2022-12-18T15:27:36.519Z,39.71
2022-12-18T15:32:39.560Z,39.85
2022-12-18T15:37:42.565Z,39.73
2022-12-18T15:43:04.277Z,39.82
2022-12-18T15:48:17.152Z,39.09
2022-12-18T15:53:20.128Z,38.85
2022-12-18T15:58:24.224Z,38.71
2022-12-18T16:03:27.056Z,38.77
2022-12-18T16:08:30.882Z,38.39
2022-12-18T16:13:35.134Z,38.53
2022-12-18T16:18:37.954Z,38.11
2022-12-18T16:23:41.184Z,38.08
2022-12-18T16:28:48.501Z,37.54
2022-12-18T16:33:51.601Z,37.69
2022-12-18T16:38:54.661Z,37.03
2022-12-18T16:43:58.897Z,37.77
2022-12-18T16:49:01.908Z,38.09
2022-12-18T16:54:09.637Z,38.42
2022-12-18T16:59:15.216Z,38.36
2022-12-18T17:04:18.484Z,38.32
2022-12-18T17:09:23.125Z,38.55
2022-12-18T17:14:27.400Z,38.57
2022-12-18T17:19:30.895Z,38.99
2022-12-18T17:24:35.320Z,38.46
2022-12-18T17:29:45.404Z,38.72
2022-12-18T17:34:50.481Z,38.88
2022-12-18T17:39:54.098Z,39.03
2022-12-18T17:44:58.419Z,39.20
2022-12-18T17:50:01.210Z,39.36
2022-12-18T17:55:04.149Z,39.50
2022-12-18T18:00:10.498Z,39.77
2022-12-18T18:05:13.289Z,40.02
2022-12-18T18:10:17.682Z,40.19
2022-12-18T18:15:22.108Z,40.03
2022-12-18T18:20:24.936Z,39.99
2022-12-18T18:25:27.920Z,39.80
2022-12-18T18:30:32.824Z,39.51
2022-12-18T18:41:01.374Z,39.29
2022-12-18T18:46:06.114Z,39.53
2022-12-18T18:51:09.679Z,39.81
2022-12-18T18:56:56.164Z,39.81
2022-12-18T19:01:39.521Z,39.79
2022-12-18T19:06:42.661Z,40.12
2022-12-18T19:12:03.473Z,39.94
2022-12-18T19:17:07.789Z,40.21
2022-12-18T19:22:11.178Z,40.27
2022-12-18T19:27:13.923Z,40.35
2022-12-18T19:32:18.223Z,40.46
2022-12-18T19:37:20.958Z,40.55
2022-12-18T19:42:28.185Z,40.49
2022-12-18T19:47:36.074Z,40.63
2022-12-18T19:52:38.824Z,40.70
2022-12-18T19:57:41.703Z,40.79
2022-12-18T20:02:46.122Z,40.80
2022-12-18T20:07:48.945Z,41.14
2022-12-18T20:12:51.724Z,41.08
2022-12-18T20:17:57.336Z,41.21
2022-12-18T20:23:00.559Z,40.97
2022-12-18T20:28:03.784Z,40.85
2022-12-18T20:33:08.229Z,41.02
2022-12-18T20:38:10.950Z,41.22
2022-12-18T20:43:17.391Z,41.22
2022-12-18T20:48:26.484Z,41.07
2022-12-18T20:53:29.636Z,40.94
2022-12-18T20:58:32.398Z,41.01
2022-12-18T21:03:36.851Z,41.12
2022-12-18T21:08:39.717Z,40.96
2022-12-18T21:13:42.552Z,41.13
2022-12-18T21:18:46.672Z,41.07
2022-12-18T21:23:49.828Z,41.31
2022-12-18T21:28:54.131Z,41.46
2022-12-18T21:34:02.139Z,41.06
2022-12-18T21:39:05.382Z,41.35
2022-12-18T21:44:08.558Z,41.50
2022-12-18T21:49:14.406Z,41.52
2022-12-18T21:54:17.302Z,41.44
2022-12-18T21:59:21.098Z,41.30
2022-12-18T22:04:25.260Z,39.73
2022-12-18T22:09:30.939Z,40.98
2022-12-18T22:14:37.249Z,41.22
2022-12-18T22:19:43.460Z,41.22
2022-12-18T22:24:48.005Z,41.41
2022-12-18T22:30:06.229Z,41.40
2022-12-18T22:35:15.811Z,41.61
2022-12-18T22:40:23.852Z,41.87
2022-12-18T22:45:27.787Z,41.78
2022-12-18T22:50:33.664Z,41.85
2022-12-18T22:55:36.498Z,41.99
2022-12-18T23:00:39.254Z,41.94
2022-12-18T23:05:43.534Z,41.99
2022-12-18T23:10:46.348Z,42.13
2022-12-18T23:15:49.132Z,42.12
2022-12-18T23:20:53.321Z,42.28
2022-12-18T23:26:02.001Z,42.15
2022-12-18T23:31:06.768Z,42.31
2022-12-18T23:36:11.204Z,42.42
2022-12-18T23:41:15.591Z,42.74
2022-12-18T23:46:19.390Z,42.75
2022-12-18T23:51:25.565Z,43.07
2022-12-18T23:56:28.608Z,43.21
